Time;durP1;ratioP1;P1;durP2;ratioP2;P2;SDS_P1;SDS_P2;PMS_P1;PMS_P2;Temp;Humidity;BMP_temperature;BMP_pressure;BME280_temperature;BME280_humidity;BME280_pressure;Samples;Min_cycle;Max_cycle;Signal;HPM_P1;HPM_P2
2021/04/21 00:00:50;;;;;;;;;;;12.70;54.20;;;;;;4946038;28;19918;-86
2021/04/21 00:03:16;;;;;;;;;;;12.80;54.20;;;;;;4952589;28;19910;-86
2021/04/21 00:05:41;;;;;;;;;;;12.80;54.20;;;;;;4947564;28;20055;-86
2021/04/21 00:08:07;;;;;;;;;;;12.80;54.00;;;;;;4946897;28;19922;-85
2021/04/21 00:10:34;;;;;;;;;;;12.80;54.00;;;;;;4949831;28;20784;-85
2021/04/21 00:13:00;;;;;;;;;;;12.80;54.00;;;;;;4944167;28;19937;-85
2021/04/21 00:15:25;;;;;;;;;;;12.80;54.00;;;;;;4947156;28;19911;-84
2021/04/21 00:17:57;;;;;;;;;;;12.70;54.10;;;;;;4950340;28;19910;-88
2021/04/21 00:20:24;;;;;;;;;;;12.60;54.20;;;;;;4945461;28;19919;-88
2021/04/21 00:22:53;;;;;;;;;;;12.60;54.40;;;;;;4947457;28;19933;-86
2021/04/21 00:25:19;;;;;;;;;;;12.50;54.60;;;;;;4946833;28;19926;-86
2021/04/21 00:27:45;;;;;;;;;;;12.40;54.70;;;;;;4944468;28;19918;-87
2021/04/21 00:30:11;;;;;;;;;;;12.30;54.90;;;;;;4948480;28;20001;-87
2021/04/21 00:32:41;;;;;;;;;;;12.20;55.10;;;;;;4949231;28;19970;-87
2021/04/21 00:35:08;;;;;;;;;;;12.10;55.30;;;;;;4952825;28;19921;-88
2021/04/21 00:37:34;;;;;;;;;;;12.00;55.40;;;;;;4951861;28;19910;-88
2021/04/21 00:40:00;;;;;;;;;;;12.00;55.50;;;;;;4949715;29;20370;-88
2021/04/21 00:42:34;;;;;;;;;;;11.90;55.60;;;;;;4944487;28;19940;-89
2021/04/21 00:45:14;;;;;;;;;;;11.90;55.70;;;;;;4950819;28;19911;-87
2021/04/21 00:48:01;;;;;;;;;;;11.80;55.80;;;;;;4948874;28;20490;-86
2021/04/21 00:50:54;;;;;;;;;;;11.80;55.90;;;;;;4946088;29;19925;-88
2021/04/21 00:53:28;;;;;;;;;;;11.70;56.00;;;;;;4963315;28;19914;-89
2021/04/21 00:56:11;;;;;;;;;;;11.60;56.20;;;;;;4953366;28;20037;-88
2021/04/21 00:58:53;;;;;;;;;;;11.60;56.30;;;;;;4942236;28;20545;-87
2021/04/21 01:01:20;;;;;;;;;;;11.50;56.50;;;;;;4951331;28;20005;-88
2021/04/21 01:03:47;;;;;;;;;;;11.30;57.00;;;;;;4957240;28;19914;-88
2021/04/21 01:06:13;;;;;;;;;;;11.20;57.00;;;;;;4949906;28;19914;-88
2021/04/21 01:08:41;;;;;;;;;;;11.20;57.20;;;;;;4949249;28;19966;-87
2021/04/21 01:11:09;;;;;;;;;;;11.10;57.60;;;;;;4941692;28;19957;-89
2021/04/21 01:13:37;;;;;;;;;;;11.00;58.00;;;;;;4949940;28;19944;-88
2021/04/21 01:16:04;;;;;;;;;;;10.90;58.10;;;;;;4946524;28;19917;-88
2021/04/21 01:18:31;;;;;;;;;;;10.90;58.20;;;;;;4952512;28;19918;-88
2021/04/21 01:21:04;;;;;;;;;;;10.90;58.30;;;;;;4954713;28;19918;-87
2021/04/21 01:23:39;;;;;;;;;;;10.80;58.20;;;;;;4949986;28;20317;-88
2021/04/21 01:26:21;;;;;;;;;;;10.80;58.30;;;;;;4949313;28;19918;-86
2021/04/21 01:28:50;;;;;;;;;;;10.70;58.50;;;;;;4948931;28;19926;-88
2021/04/21 01:31:16;;;;;;;;;;;10.60;58.60;;;;;;4945130;28;19945;-88
2021/04/21 01:33:44;;;;;;;;;;;10.60;58.90;;;;;;4952164;28;19962;-88
2021/04/21 01:36:12;;;;;;;;;;;10.50;58.90;;;;;;4950107;28;19918;-88
2021/04/21 01:38:39;;;;;;;;;;;10.50;59.00;;;;;;4947985;28;19918;-88
2021/04/21 01:41:06;;;;;;;;;;;10.50;59.20;;;;;;4953042;28;20540;-88
2021/04/21 01:43:34;;;;;;;;;;;10.40;59.30;;;;;;4944991;28;20357;-87
2021/04/21 01:46:01;;;;;;;;;;;10.40;59.50;;;;;;4948834;28;19910;-88
2021/04/21 01:48:27;;;;;;;;;;;10.40;59.50;;;;;;4947370;28;19919;-87
2021/04/21 01:50:54;;;;;;;;;;;10.40;59.50;;;;;;4951317;28;19914;-88
2021/04/21 01:53:28;;;;;;;;;;;10.40;59.60;;;;;;4951424;28;19918;-87
2021/04/21 01:56:09;;;;;;;;;;;10.40;59.70;;;;;;4950075;28;19974;-89
2021/04/21 01:58:55;;;;;;;;;;;10.30;59.60;;;;;;4942546;28;19914;-88
2021/04/21 02:01:40;;;;;;;;;;;10.30;59.70;;;;;;4952642;28;20364;-89
2021/04/21 02:04:18;;;;;;;;;;;10.30;59.80;;;;;;4949022;28;20365;-88
2021/04/21 02:06:50;;;;;;;;;;;10.30;60.00;;;;;;4951555;28;19910;-88
2021/04/21 02:09:22;;;;;;;;;;;10.30;60.10;;;;;;4948927;28;19918;-88
2021/04/21 02:11:56;;;;;;;;;;;10.20;60.20;;;;;;4950529;28;19910;-88
2021/04/21 02:14:25;;;;;;;;;;;10.20;60.40;;;;;;4948723;28;19981;-87
2021/04/21 02:17:09;;;;;;;;;;;10.20;60.50;;;;;;4942923;28;19914;-87
2021/04/21 02:19:45;;;;;;;;;;;10.20;60.60;;;;;;4949139;28;19910;-87
2021/04/21 02:22:19;;;;;;;;;;;10.10;60.70;;;;;;4945010;28;20164;-87
2021/04/21 02:25:03;;;;;;;;;;;10.10;60.90;;;;;;4944965;29;19986;-87
2021/04/21 02:27:47;;;;;;;;;;;10.10;60.90;;;;;;4944889;29;20305;-88
2021/04/21 02:30:18;;;;;;;;;;;10.10;60.90;;;;;;4945863;28;19925;-88
2021/04/21 02:32:59;;;;;;;;;;;10.00;61.30;;;;;;4951191;28;20057;-87
2021/04/21 02:35:43;;;;;;;;;;;10.00;61.80;;;;;;4951050;28;19911;-88
2021/04/21 02:38:11;;;;;;;;;;;9.90;61.80;;;;;;4960325;28;20361;-87
2021/04/21 02:40:55;;;;;;;;;;;9.90;61.80;;;;;;4949502;28;19941;-87
2021/04/21 02:43:26;;;;;;;;;;;9.90;62.00;;;;;;4951908;29;20405;-87
2021/04/21 02:45:58;;;;;;;;;;;9.80;62.20;;;;;;4947871;28;20349;-88
2021/04/21 02:48:32;;;;;;;;;;;9.80;62.20;;;;;;4945731;28;19918;-86
2021/04/21 02:51:13;;;;;;;;;;;9.80;62.30;;;;;;4952900;28;20079;-88
2021/04/21 02:53:45;;;;;;;;;;;9.80;62.40;;;;;;4945517;28;20004;-88
2021/04/21 02:56:19;;;;;;;;;;;9.70;62.50;;;;;;4945609;28;20002;-87
2021/04/21 02:59:04;;;;;;;;;;;9.70;63.00;;;;;;4950488;28;19914;-88
2021/04/21 03:01:49;;;;;;;;;;;9.70;62.90;;;;;;4946993;28;19920;-88
2021/04/21 03:04:26;;;;;;;;;;;9.70;62.90;;;;;;4944191;28;19925;-87
2021/04/21 03:06:53;;;;;;;;;;;9.70;63.00;;;;;;4944056;29;19910;-87
2021/04/21 03:09:25;;;;;;;;;;;9.70;63.20;;;;;;4944487;28;19918;-86
2021/04/21 03:11:53;;;;;;;;;;;9.70;63.40;;;;;;4949711;29;19926;-87
2021/04/21 03:14:20;;;;;;;;;;;9.70;63.40;;;;;;4952511;28;19910;-87
2021/04/21 03:16:48;;;;;;;;;;;9.70;63.50;;;;;;4950497;28;19911;-86
2021/04/21 03:19:15;;;;;;;;;;;9.70;63.40;;;;;;4950338;28;20379;-87
2021/04/21 03:21:42;;;;;;;;;;;9.70;63.40;;;;;;4950620;28;19910;-87
2021/04/21 03:24:18;;;;;;;;;;;9.80;63.40;;;;;;4952243;28;19910;-87
2021/04/21 03:26:51;;;;;;;;;;;9.80;63.40;;;;;;4950596;28;19929;-88
2021/04/21 03:29:19;;;;;;;;;;;9.80;63.40;;;;;;4952211;28;20357;-88
2021/04/21 03:31:46;;;;;;;;;;;9.80;63.40;;;;;;4953431;28;19914;-88
2021/04/21 03:34:13;;;;;;;;;;;9.80;63.40;;;;;;4947631;28;19914;-88
2021/04/21 03:36:41;;;;;;;;;;;9.80;63.40;;;;;;4950839;28;20080;-87
2021/04/21 03:39:06;;;;;;;;;;;9.80;63.60;;;;;;4954234;28;19937;-87
2021/04/21 03:41:32;;;;;;;;;;;9.80;63.70;;;;;;4954096;28;20369;-86
2021/04/21 03:43:58;;;;;;;;;;;9.80;63.80;;;;;;4952376;28;19910;-86
2021/04/21 03:46:24;;;;;;;;;;;9.90;63.70;;;;;;4953941;28;19911;-86
2021/04/21 03:48:49;;;;;;;;;;;9.80;63.60;;;;;;4941293;29;20005;-85
2021/04/21 03:51:16;;;;;;;;;;;9.90;63.70;;;;;;4948096;28;20288;-87
2021/04/21 03:53:42;;;;;;;;;;;9.90;63.70;;;;;;4953045;28;20397;-86
2021/04/21 03:56:10;;;;;;;;;;;9.80;63.90;;;;;;4947634;28;19958;-85
2021/04/21 03:58:37;;;;;;;;;;;9.80;64.10;;;;;;4948727;28;19914;-86
2021/04/21 04:01:06;;;;;;;;;;;9.70;64.10;;;;;;4949113;28;19945;-86
2021/04/21 04:03:32;;;;;;;;;;;9.70;64.20;;;;;;4946491;28;19926;-87
2021/04/21 04:06:12;;;;;;;;;;;9.70;64.30;;;;;;4949606;28;20107;-87
2021/04/21 04:08:43;;;;;;;;;;;9.70;64.20;;;;;;4952127;28;19929;-86
2021/04/21 04:11:11;;;;;;;;;;;9.70;64.40;;;;;;4952408;28;20004;-87
2021/04/21 04:13:39;;;;;;;;;;;9.60;64.40;;;;;;4953113;28;19907;-87
2021/04/21 04:16:06;;;;;;;;;;;9.60;64.50;;;;;;4952854;28;19940;-87
2021/04/21 04:18:31;;;;;;;;;;;9.60;64.50;;;;;;4948219;28;19915;-87
2021/04/21 04:20:59;;;;;;;;;;;9.60;64.60;;;;;;4950405;28;19957;-88
2021/04/21 04:23:25;;;;;;;;;;;9.50;64.60;;;;;;4946859;28;19906;-86
2021/04/21 04:25:51;;;;;;;;;;;9.50;64.60;;;;;;4949017;28;19910;-87
2021/04/21 04:28:18;;;;;;;;;;;9.50;64.60;;;;;;4948184;28;19981;-88
2021/04/21 04:30:44;;;;;;;;;;;9.50;64.70;;;;;;4953716;28;19957;-87
2021/04/21 04:33:10;;;;;;;;;;;9.50;64.90;;;;;;4952725;28;19910;-87
2021/04/21 04:35:36;;;;;;;;;;;9.40;64.90;;;;;;4950266;28;19926;-87
2021/04/21 04:38:02;;;;;;;;;;;9.40;65.00;;;;;;4944553;28;19922;-88
2021/04/21 04:40:28;;;;;;;;;;;9.40;65.10;;;;;;4950905;28;20032;-87
2021/04/21 04:42:54;;;;;;;;;;;9.40;65.20;;;;;;4944627;28;20352;-87
2021/04/21 04:45:20;;;;;;;;;;;9.30;65.20;;;;;;4937638;28;19911;-86
2021/04/21 04:47:51;;;;;;;;;;;9.30;65.30;;;;;;4951752;29;19914;-88
2021/04/21 04:50:18;;;;;;;;;;;9.30;65.40;;;;;;4942771;28;19973;-86
2021/04/21 04:52:46;;;;;;;;;;;9.20;64.90;;;;;;4952014;28;20005;-88
2021/04/21 04:55:15;;;;;;;;;;;9.20;65.60;;;;;;4948200;28;19918;-87
2021/04/21 04:57:45;;;;;;;;;;;9.20;65.60;;;;;;4951422;28;20379;-87
2021/04/21 05:00:11;;;;;;;;;;;9.20;65.70;;;;;;4948436;28;19965;-87
2021/04/21 05:02:38;;;;;;;;;;;9.10;65.90;;;;;;4955678;28;19909;-87
2021/04/21 05:05:07;;;;;;;;;;;9.10;66.00;;;;;;4953758;28;20026;-86
2021/04/21 05:07:43;;;;;;;;;;;9.10;66.10;;;;;;4949255;28;19973;-87
2021/04/21 05:10:28;;;;;;;;;;;9.10;66.20;;;;;;4964105;28;20030;-86
2021/04/21 05:12:58;;;;;;;;;;;9.10;66.10;;;;;;4945351;28;19915;-85
2021/04/21 05:15:38;;;;;;;;;;;9.10;66.30;;;;;;4949493;28;19969;-86
2021/04/21 05:18:07;;;;;;;;;;;9.10;66.30;;;;;;4946372;28;20408;-86
2021/04/21 05:20:35;;;;;;;;;;;9.20;66.10;;;;;;4949959;28;20176;-87
2021/04/21 05:23:15;;;;;;;;;;;9.20;65.90;;;;;;4952218;29;19917;-86
2021/04/21 05:25:59;;;;;;;;;;;9.30;65.60;;;;;;4941920;28;20257;-86
2021/04/21 05:28:40;;;;;;;;;;;9.40;65.40;;;;;;4947363;28;20258;-85
2021/04/21 05:31:13;;;;;;;;;;;9.60;65.50;;;;;;4948116;28;19910;-86
2021/04/21 05:33:58;;;;;;;;;;;10.20;64.90;;;;;;4949440;28;19920;-89
2021/04/21 05:36:23;;;;;;;;;;;10.80;63.60;;;;;;4951030;28;20273;-87
2021/04/21 05:39:07;;;;;;;;;;;11.30;62.00;;;;;;4948478;28;19911;-85
2021/04/21 05:41:52;;;;;;;;;;;11.50;61.20;;;;;;4952934;28;20100;-86
2021/04/21 05:44:52;;;;;;;;;;;11.90;60.40;;;;;;4958101;28;20360;-87
2021/04/21 05:47:18;;;;;;;;;;;12.30;59.50;;;;;;4946491;28;20009;-86
2021/04/21 05:50:03;;;;;;;;;;;12.60;58.70;;;;;;4958654;28;20314;-86
2021/04/21 05:52:47;;;;;;;;;;;12.90;58.20;;;;;;4940994;28;19910;-86
2021/04/21 05:55:12;;;;;;;;;;;13.10;57.70;;;;;;4958455;28;19993;-88
2021/04/21 05:58:04;;;;;;;;;;;13.40;57.10;;;;;;4951314;28;20339;-86
2021/04/21 06:00:29;;;;;;;;;;;13.70;56.60;;;;;;4950542;28;19911;-84
2021/04/21 06:02:55;;;;;;;;;;;13.90;55.80;;;;;;4948887;28;19911;-86
2021/04/21 06:05:21;;;;;;;;;;;14.20;55.40;;;;;;4949836;28;19910;-85
2021/04/21 06:07:46;;;;;;;;;;;14.30;54.90;;;;;;4951452;29;19919;-85
2021/04/21 06:10:24;;;;;;;;;;;14.60;54.40;;;;;;4951054;28;19914;-86
2021/04/21 06:12:50;;;;;;;;;;;14.90;53.90;;;;;;4944978;28;20321;-85
2021/04/21 06:15:20;;;;;;;;;;;15.20;53.20;;;;;;4944609;28;19910;-86
2021/04/21 06:17:46;;;;;;;;;;;15.30;52.60;;;;;;4946896;28;20005;-85
2021/04/21 06:20:16;;;;;;;;;;;15.50;52.40;;;;;;4943762;28;20081;-86
2021/04/21 06:22:41;;;;;;;;;;;15.50;51.90;;;;;;4950771;28;20369;-87
2021/04/21 06:25:08;;;;;;;;;;;15.20;52.00;;;;;;4950503;28;19917;-86
2021/04/21 06:27:33;;;;;;;;;;;15.30;52.20;;;;;;4946997;28;19914;-86
2021/04/21 06:30:05;;;;;;;;;;;15.40;51.60;;;;;;4949555;28;19929;-86
2021/04/21 06:32:31;;;;;;;;;;;15.60;51.20;;;;;;4950398;28;19963;-84
2021/04/21 06:35:07;;;;;;;;;;;15.80;50.60;;;;;;4950673;28;19910;-87
2021/04/21 06:37:33;;;;;;;;;;;16.00;50.10;;;;;;4947363;28;19914;-86
2021/04/21 06:40:06;;;;;;;;;;;16.40;49.40;;;;;;4945822;28;20005;-86
2021/04/21 06:42:32;;;;;;;;;;;16.70;48.70;;;;;;4948785;28;19922;-87
2021/04/21 06:44:58;;;;;;;;;;;17.00;48.40;;;;;;4941640;28;19957;-88
2021/04/21 06:47:26;;;;;;;;;;;17.40;47.60;;;;;;4951244;28;19949;-91
2021/04/21 06:50:01;;;;;;;;;;;17.80;47.10;;;;;;4952716;28;19960;-91
2021/04/21 06:52:33;;;;;;;;;;;18.20;46.40;;;;;;4953814;28;19910;-91
2021/04/21 06:55:06;;;;;;;;;;;18.50;45.60;;;;;;4951848;28;19910;-90
2021/04/21 06:57:31;;;;;;;;;;;18.60;45.20;;;;;;4960488;28;19914;-89
2021/04/21 07:00:03;;;;;;;;;;;19.10;44.70;;;;;;4948198;28;19973;-88
2021/04/21 07:02:35;;;;;;;;;;;19.30;43.90;;;;;;4974298;28;20311;-90
2021/04/21 07:05:01;;;;;;;;;;;19.60;43.80;;;;;;4960123;28;20033;-89
2021/04/21 07:07:27;;;;;;;;;;;19.70;43.50;;;;;;4951334;28;19997;-87
2021/04/21 07:09:53;;;;;;;;;;;19.80;43.60;;;;;;4951602;28;19925;-87
2021/04/21 07:12:19;;;;;;;;;;;19.90;43.60;;;;;;4944658;28;19966;-88
2021/04/21 07:14:44;;;;;;;;;;;19.90;43.40;;;;;;4942547;28;19953;-89
2021/04/21 07:17:11;;;;;;;;;;;20.00;43.40;;;;;;4960252;28;19941;-88
2021/04/21 07:19:39;;;;;;;;;;;20.10;43.20;;;;;;4946197;28;20389;-86
2021/04/21 07:22:05;;;;;;;;;;;20.20;43.00;;;;;;4952164;28;19916;-88
2021/04/21 07:24:33;;;;;;;;;;;20.40;42.50;;;;;;4947742;28;19929;-89
2021/04/21 07:26:59;;;;;;;;;;;20.50;42.10;;;;;;4953843;28;19917;-89
2021/04/21 07:29:25;;;;;;;;;;;20.40;41.60;;;;;;4949491;28;19918;-88
2021/04/21 07:31:51;;;;;;;;;;;20.50;41.20;;;;;;4940442;28;19911;-90
2021/04/21 07:34:38;;;;;;;;;;;20.50;40.70;;;;;;4957563;28;19914;-90
2021/04/21 07:37:03;;;;;;;;;;;20.70;40.80;;;;;;4961247;28;19914;-93
2021/04/21 07:39:35;;;;;;;;;;;20.90;40.40;;;;;;4948715;28;19911;-91
2021/04/21 07:42:01;;;;;;;;;;;20.90;39.90;;;;;;4951316;28;19969;-87
2021/04/21 07:44:31;;;;;;;;;;;20.70;39.60;;;;;;4953171;28;19910;-90
2021/04/21 07:47:06;;;;;;;;;;;20.70;39.70;;;;;;4953942;28;20370;-94
2021/04/21 07:49:32;;;;;;;;;;;20.50;39.70;;;;;;4963546;28;19919;-96
2021/04/21 07:52:05;;;;;;;;;;;20.50;39.70;;;;;;5200131;23;19932;-96
2021/04/21 07:54:31;;;;;;;;;;;20.40;39.70;;;;;;5181938;23;19936;-94
2021/04/21 07:56:59;;;;;;;;;;;20.40;39.90;;;;;;4976062;28;20273;-92
2021/04/21 07:59:29;;;;;;;;;;;20.40;39.90;;;;;;4975620;28;19910;-92
2021/04/21 08:02:00;;;;;;;;;;;20.40;39.90;;;;;;4993519;28;19913;-92
2021/04/21 08:04:28;;;;;;;;;;;20.40;40.00;;;;;;4970375;28;19999;-89
2021/04/21 08:07:02;;;;;;;;;;;20.30;40.30;;;;;;4974473;28;19909;-92
2021/04/21 08:10:04;;;;;;;;;;;20.30;40.30;;;;;;4967529;28;19933;-94
2021/04/21 08:12:31;;;;;;;;;;;20.20;40.40;;;;;;4892853;29;20347;-88
2021/04/21 08:14:58;;;;;;;;;;;20.50;40.50;;;;;;4954333;28;19921;-90
2021/04/21 08:17:48;;;;;;;;;;;20.40;40.40;;;;;;4987243;28;19917;-92
2021/04/21 08:20:14;;;;;;;;;;;20.30;40.80;;;;;;4981248;28;19910;-92
2021/04/21 08:22:39;;;;;;;;;;;20.20;41.10;;;;;;4971360;28;20077;-93
2021/04/21 08:25:16;;;;;;;;;;;20.00;41.40;;;;;;4973047;28;19960;-91
2021/04/21 08:27:41;;;;;;;;;;;19.60;41.80;;;;;;4977743;28;19914;-91
2021/04/21 08:30:07;;;;;;;;;;;18.90;42.70;;;;;;4976515;28;19914;-93
2021/04/21 08:32:32;;;;;;;;;;;18.30;43.90;;;;;;4979165;28;19998;-87
2021/04/21 08:34:58;;;;;;;;;;;17.90;44.60;;;;;;4976117;28;20146;-88
2021/04/21 08:37:23;;;;;;;;;;;17.60;45.30;;;;;;4971779;28;20391;-88
2021/04/21 08:39:49;;;;;;;;;;;17.30;45.70;;;;;;4980847;28;19911;-92
2021/04/21 08:42:14;;;;;;;;;;;16.90;46.00;;;;;;4998279;28;19910;-90
2021/04/21 08:44:41;;;;;;;;;;;16.80;46.50;;;;;;4973828;28;20517;-91
2021/04/21 08:47:12;;;;;;;;;;;16.60;46.60;;;;;;4974113;28;19910;-92
2021/04/21 08:49:39;;;;;;;;;;;16.60;46.90;;;;;;4969701;28;19925;-92
2021/04/21 08:52:05;;;;;;;;;;;16.70;47.10;;;;;;4979426;28;19977;-90
2021/04/21 08:54:31;;;;;;;;;;;16.80;47.20;;;;;;4981530;28;19926;-92
2021/04/21 08:57:02;;;;;;;;;;;16.80;47.10;;;;;;4976254;28;19913;-91
2021/04/21 08:59:29;;;;;;;;;;;16.80;47.00;;;;;;4981070;28;20387;-93
2021/04/21 09:01:57;;;;;;;;;;;16.80;47.00;;;;;;4989560;28;20683;-92
2021/04/21 09:04:25;;;;;;;;;;;16.80;47.40;;;;;;4974737;28;19917;-94
2021/04/21 09:06:53;;;;;;;;;;;16.90;46.40;;;;;;4979775;28;19914;-93
2021/04/21 09:09:19;;;;;;;;;;;16.80;45.90;;;;;;4979107;28;19918;-94
2021/04/21 09:11:48;;;;;;;;;;;16.80;45.80;;;;;;4983529;28;19910;-93
2021/04/21 09:14:14;;;;;;;;;;;16.80;45.80;;;;;;4984262;28;19910;-93
2021/04/21 09:16:40;;;;;;;;;;;16.90;45.70;;;;;;4977839;28;19945;-94
2021/04/21 09:19:14;;;;;;;;;;;16.90;45.40;;;;;;4986938;28;19910;-96
2021/04/21 09:21:41;;;;;;;;;;;16.90;45.10;;;;;;4981676;28;19917;-96
2021/04/21 09:24:24;;;;;;;;;;;17.00;45.20;;;;;;4979138;28;19906;-95
2021/04/21 09:26:50;;;;;;;;;;;17.10;44.40;;;;;;4969963;28;20257;-94
2021/04/21 09:29:23;;;;;;;;;;;17.10;44.30;;;;;;4969455;28;19918;-95
2021/04/21 09:32:03;;;;;;;;;;;17.20;44.10;;;;;;4964887;28;19973;-93
2021/04/21 09:34:28;;;;;;;;;;;17.30;43.30;;;;;;4981877;28;19941;-93
2021/04/21 09:36:54;;;;;;;;;;;17.10;42.60;;;;;;4971655;28;20372;-92
2021/04/21 09:39:23;;;;;;;;;;;17.10;42.90;;;;;;4976588;28;19928;-93
2021/04/21 09:41:50;;;;;;;;;;;17.00;42.90;;;;;;4973447;28;19915;-93
2021/04/21 09:44:15;;;;;;;;;;;17.00;42.70;;;;;;4981831;28;19910;-92
2021/04/21 09:46:42;;;;;;;;;;;17.00;42.80;;;;;;4974792;28;19933;-92
2021/04/21 09:49:27;;;;;;;;;;;17.00;42.90;;;;;;4979122;28;19926;-95
2021/04/21 09:51:54;;;;;;;;;;;17.10;42.60;;;;;;4980679;28;20361;-94
2021/04/21 09:54:30;;;;;;;;;;;17.20;42.60;;;;;;4973415;28;19917;-92
2021/04/21 09:57:09;;;;;;;;;;;17.20;41.50;;;;;;4982661;28;20008;-92
2021/04/21 09:59:35;;;;;;;;;;;17.20;41.80;;;;;;4975989;28;19913;-93
2021/04/21 10:02:01;;;;;;;;;;;17.30;41.40;;;;;;4979281;28;19981;-92
2021/04/21 10:04:27;;;;;;;;;;;17.30;41.20;;;;;;4984974;28;19969;-93
2021/04/21 10:06:56;;;;;;;;;;;17.30;41.20;;;;;;4981341;28;20424;-96
2021/04/21 10:09:25;;;;;;;;;;;17.20;40.70;;;;;;4964761;28;19926;-95
2021/04/21 10:11:52;;;;;;;;;;;17.10;41.30;;;;;;4979234;28;19986;-93
2021/04/21 10:14:24;;;;;;;;;;;17.20;41.60;;;;;;4976644;28;19910;-94
2021/04/21 10:16:51;;;;;;;;;;;17.30;41.80;;;;;;4978749;28;19910;-95
2021/04/21 10:19:17;;;;;;;;;;;17.30;41.70;;;;;;4975997;28;19956;-94
2021/04/21 10:21:42;;;;;;;;;;;17.40;41.60;;;;;;4974428;28;19921;-95
2021/04/21 10:24:08;;;;;;;;;;;17.30;41.70;;;;;;4974897;28;19914;-93
2021/04/21 10:26:34;;;;;;;;;;;17.20;42.00;;;;;;4975959;28;19941;-93
2021/04/21 10:28:59;;;;;;;;;;;17.20;42.20;;;;;;4972973;28;19973;-94
2021/04/21 10:31:33;;;;;;;;;;;17.40;42.50;;;;;;4972366;28;20010;-95
2021/04/21 10:33:59;;;;;;;;;;;17.40;42.30;;;;;;4971219;28;19921;-96
2021/04/21 10:36:25;;;;;;;;;;;17.40;42.40;;;;;;4975074;28;19914;-93
2021/04/21 10:38:51;;;;;;;;;;;17.50;42.50;;;;;;4974573;28;19941;-95
2021/04/21 10:41:26;;;;;;;;;;;17.50;42.40;;;;;;4990747;28;19909;-94
2021/04/21 10:44:11;;;;;;;;;;;17.50;42.40;;;;;;4972550;28;19952;-93
2021/04/21 10:47:03;;;;;;;;;;;17.50;42.40;;;;;;4970798;28;19910;-92
2021/04/21 10:49:35;;;;;;;;;;;17.50;42.60;;;;;;4966972;28;20386;-92
2021/04/21 10:52:15;;;;;;;;;;;17.60;42.80;;;;;;4978438;28;19913;-92
2021/04/21 10:54:41;;;;;;;;;;;17.70;42.60;;;;;;4975989;28;20339;-92
2021/04/21 10:57:21;;;;;;;;;;;17.90;42.70;;;;;;4980053;28;19929;-92
2021/04/21 11:00:04;;;;;;;;;;;18.00;42.90;;;;;;4986509;28;20387;-90
2021/04/21 11:02:42;;;;;;;;;;;17.80;43.70;;;;;;4978739;28;19914;-90
2021/04/21 11:05:18;;;;;;;;;;;17.60;44.50;;;;;;4972324;28;20419;-91
2021/04/21 11:07:44;;;;;;;;;;;17.50;45.00;;;;;;4973045;28;19922;-90
2021/04/21 11:10:29;;;;;;;;;;;17.30;45.50;;;;;;4976569;28;19914;-90
2021/04/21 11:12:55;;;;;;;;;;;17.30;45.70;;;;;;4971530;28;19930;-90
2021/04/21 11:15:39;;;;;;;;;;;17.30;45.90;;;;;;4979044;28;19910;-91
2021/04/21 11:18:08;;;;;;;;;;;17.30;45.70;;;;;;4971818;28;19910;-92
2021/04/21 11:20:42;;;;;;;;;;;17.40;45.60;;;;;;4981933;28;19929;-91
2021/04/21 11:23:30;;;;;;;;;;;17.60;45.00;;;;;;4977139;28;19919;-91
2021/04/21 11:26:16;;;;;;;;;;;17.70;44.00;;;;;;4950278;28;19929;-91
2021/04/21 11:28:53;;;;;;;;;;;17.70;43.70;;;;;;4961067;28;19932;-90
2021/04/21 11:31:22;;;;;;;;;;;17.80;43.70;;;;;;4978505;28;20000;-91
2021/04/21 11:33:54;;;;;;;;;;;18.00;43.50;;;;;;4982041;28;19941;-90
2021/04/21 11:36:34;;;;;;;;;;;18.10;43.40;;;;;;4975307;28;20161;-92
2021/04/21 11:39:00;;;;;;;;;;;18.20;43.10;;;;;;4984806;28;19940;-91
2021/04/21 11:41:37;;;;;;;;;;;18.40;43.00;;;;;;4978082;28;20751;-93
2021/04/21 11:44:05;;;;;;;;;;;18.30;43.00;;;;;;4977003;28;19928;-94
2021/04/21 11:46:52;;;;;;;;;;;18.00;43.40;;;;;;4975173;28;20009;-89
2021/04/21 11:49:37;;;;;;;;;;;17.80;43.60;;;;;;4976232;28;19918;-93
2021/04/21 11:52:02;;;;;;;;;;;17.60;43.70;;;;;;5008670;28;19910;-92
2021/04/21 11:54:28;;;;;;;;;;;17.70;43.80;;;;;;4981276;28;20029;-90
2021/04/21 11:56:57;;;;;;;;;;;17.90;43.70;;;;;;4974428;28;19910;-90
2021/04/21 11:59:24;;;;;;;;;;;18.10;43.40;;;;;;4982309;28;19910;-90
2021/04/21 12:01:53;;;;;;;;;;;18.20;43.80;;;;;;4972655;28;19917;-90
2021/04/21 12:04:20;;;;;;;;;;;18.20;43.10;;;;;;4976072;28;19918;-91
2021/04/21 12:06:45;;;;;;;;;;;17.90;43.70;;;;;;4972048;28;19914;-92
2021/04/21 12:09:11;;;;;;;;;;;17.70;45.00;;;;;;4982355;28;20372;-90
2021/04/21 12:11:37;;;;;;;;;;;17.30;46.80;;;;;;4980201;28;19937;-93
2021/04/21 12:14:02;;;;;;;;;;;17.00;48.30;;;;;;4977081;28;19914;-91
2021/04/21 12:16:29;;;;;;;;;;;16.70;48.70;;;;;;4981248;28;19941;-92
2021/04/21 12:18:58;;;;;;;;;;;16.40;49.60;;;;;;4983907;28;19920;-91
2021/04/21 12:21:29;;;;;;;;;;;16.20;50.20;;;;;;4979310;28;19906;-92
2021/04/21 12:23:54;;;;;;;;;;;16.10;50.80;;;;;;4981222;28;19991;-92
2021/04/21 12:26:20;;;;;;;;;;;16.00;51.20;;;;;;4975596;28;20341;-90
2021/04/21 12:28:47;;;;;;;;;;;16.10;51.10;;;;;;4975757;28;19925;-92
2021/04/21 12:31:12;;;;;;;;;;;16.30;50.80;;;;;;4974397;28;19910;-94
2021/04/21 12:33:38;;;;;;;;;;;16.40;50.60;;;;;;4974546;28;19966;-92
2021/04/21 12:36:03;;;;;;;;;;;16.50;50.60;;;;;;4975490;28;20288;-94
2021/04/21 12:38:31;;;;;;;;;;;16.60;50.40;;;;;;4973920;28;19910;-92
2021/04/21 12:40:57;;;;;;;;;;;16.60;50.20;;;;;;4974015;28;19914;-94
2021/04/21 12:43:25;;;;;;;;;;;16.60;50.10;;;;;;4979716;28;19906;-90
2021/04/21 12:45:51;;;;;;;;;;;16.60;50.00;;;;;;4973337;28;20039;-92
2021/04/21 12:48:27;;;;;;;;;;;16.70;50.00;;;;;;4974101;28;19913;-91
2021/04/21 12:50:57;;;;;;;;;;;16.70;49.50;;;;;;4977482;28;19918;-91
2021/04/21 12:53:24;;;;;;;;;;;16.90;49.20;;;;;;4972842;28;19914;-92
2021/04/21 12:56:02;;;;;;;;;;;17.20;48.80;;;;;;4975165;28;19921;-92
2021/04/21 12:58:47;;;;;;;;;;;17.30;48.20;;;;;;4972700;28;19910;-91
2021/04/21 13:01:19;;;;;;;;;;;17.40;47.70;;;;;;4969247;28;19910;-91
2021/04/21 13:04:16;;;;;;;;;;;17.60;47.40;;;;;;4974484;28;19910;-90
2021/04/21 13:06:45;;;;;;;;;;;17.60;47.00;;;;;;4967076;28;19920;-93
2021/04/21 13:09:13;;;;;;;;;;;17.50;46.50;;;;;;4975033;28;19922;-90
2021/04/21 13:11:42;;;;;;;;;;;17.50;46.30;;;;;;4978676;28;19945;-90
2021/04/21 13:14:07;;;;;;;;;;;17.50;46.40;;;;;;4976378;28;20021;-93
2021/04/21 13:16:35;;;;;;;;;;;17.50;46.30;;;;;;4978070;28;19945;-91
2021/04/21 13:19:19;;;;;;;;;;;17.30;46.20;;;;;;4978833;28;19921;-93
2021/04/21 13:21:57;;;;;;;;;;;17.00;46.50;;;;;;4975517;28;19937;-94
2021/04/21 13:24:23;;;;;;;;;;;16.80;47.00;;;;;;4985228;28;19910;-94
2021/04/21 13:26:54;;;;;;;;;;;16.70;47.10;;;;;;4976016;28;19909;-94
2021/04/21 13:29:30;;;;;;;;;;;16.70;47.10;;;;;;4969796;28;19929;-94
2021/04/21 13:32:06;;;;;;;;;;;16.70;47.00;;;;;;4980744;28;19941;-91
2021/04/21 13:34:42;;;;;;;;;;;16.60;46.80;;;;;;4982241;28;19910;-92
2021/04/21 13:37:08;;;;;;;;;;;16.50;46.60;;;;;;4986546;28;20365;-96
2021/04/21 13:39:34;;;;;;;;;;;16.70;46.70;;;;;;4982010;28;19917;-96
2021/04/21 13:44:35;;;;;;;;;;;17.10;45.70;;;;;;4957897;28;19926;-96
2021/04/21 13:47:00;;;;;;;;;;;17.30;45.50;;;;;;4955761;28;19926;-96
2021/04/21 13:49:32;;;;;;;;;;;17.40;45.30;;;;;;4957329;28;20400;-95
2021/04/21 13:52:02;;;;;;;;;;;17.30;45.00;;;;;;4964568;28;19953;-93
2021/04/21 13:54:28;;;;;;;;;;;17.20;45.20;;;;;;4972838;28;19911;-95
2021/04/21 13:56:53;;;;;;;;;;;17.10;45.40;;;;;;4955764;28;19914;-94
2021/04/21 13:59:21;;;;;;;;;;;17.30;45.50;;;;;;4961765;28;19910;-92
2021/04/21 14:01:46;;;;;;;;;;;17.40;45.30;;;;;;4970104;28;20042;-92
2021/04/21 14:04:13;;;;;;;;;;;17.30;44.90;;;;;;4971859;28;19917;-94
2021/04/21 14:06:41;;;;;;;;;;;17.00;45.20;;;;;;4999598;28;19925;-91
2021/04/21 14:09:06;;;;;;;;;;;16.80;45.60;;;;;;4974506;28;19929;-93
2021/04/21 14:11:32;;;;;;;;;;;16.80;46.00;;;;;;4971096;28;20362;-94
2021/04/21 14:14:04;;;;;;;;;;;16.80;45.90;;;;;;4960813;28;19942;-95
2021/04/21 14:16:30;;;;;;;;;;;17.00;45.80;;;;;;4961653;28;19973;-96
2021/04/21 14:19:00;;;;;;;;;;;17.10;45.50;;;;;;4960314;28;19961;-94
2021/04/21 14:21:28;;;;;;;;;;;17.20;45.30;;;;;;4943635;29;19922;-92
2021/04/21 14:23:53;;;;;;;;;;;17.20;45.00;;;;;;4969205;28;19934;-95
2021/04/21 14:26:18;;;;;;;;;;;16.90;45.40;;;;;;4971961;28;19910;-94
2021/04/21 14:28:45;;;;;;;;;;;16.80;44.80;;;;;;4975265;28;19926;-96
2021/04/21 14:31:26;;;;;;;;;;;16.70;45.00;;;;;;4965799;28;19906;-96
2021/04/21 14:33:53;;;;;;;;;;;16.70;44.80;;;;;;4958666;28;19910;-94
2021/04/21 14:36:28;;;;;;;;;;;16.80;44.70;;;;;;4979913;28;19982;-95
2021/04/21 14:38:54;;;;;;;;;;;17.00;44.50;;;;;;4965825;28;19977;-96
2021/04/21 14:41:34;;;;;;;;;;;17.30;44.30;;;;;;4968668;28;19914;-96